sensor_id;sensor_type;location;lat;lon;timestamp;temperature;humidity
10437;DHT22;5265;50.006;9.202;2023-01-25T00:00:53;2.30;99.90
10437;DHT22;5265;50.006;9.202;2023-01-25T00:03:20;2.40;99.90
10437;DHT22;5265;50.006;9.202;2023-01-25T00:05:47;2.40;99.90
10437;DHT22;5265;50.006;9.202;2023-01-25T00:08:14;2.30;99.90
10437;DHT22;5265;50.006;9.202;2023-01-25T00:10:41;2.20;99.90
10437;DHT22;5265;50.006;9.202;2023-01-25T00:13:08;2.30;99.90
10437;DHT22;5265;50.006;9.202;2023-01-25T00:15:37;2.30;99.90
10437;DHT22;5265;50.006;9.202;2023-01-25T00:18:04;2.30;99.90
10437;DHT22;5265;50.006;9.202;2023-01-25T00:20:31;2.20;99.90
10437;DHT22;5265;50.006;9.202;2023-01-25T00:22:58;2.10;99.90
10437;DHT22;5265;50.006;9.202;2023-01-25T00:25:25;2.30;99.90
10437;DHT22;5265;50.006;9.202;2023-01-25T00:27:52;2.20;99.90
10437;DHT22;5265;50.006;9.202;2023-01-25T00:30:19;2.30;99.90
10437;DHT22;5265;50.006;9.202;2023-01-25T00:32:52;2.20;99.90
10437;DHT22;5265;50.006;9.202;2023-01-25T00:35:19;2.10;99.90
10437;DHT22;5265;50.006;9.202;2023-01-25T00:37:47;2.20;99.90
10437;DHT22;5265;50.006;9.202;2023-01-25T00:40:16;2.20;99.90
10437;DHT22;5265;50.006;9.202;2023-01-25T00:42:44;2.30;99.90
10437;DHT22;5265;50.006;9.202;2023-01-25T00:45:11;2.20;99.90
10437;DHT22;5265;50.006;9.202;2023-01-25T00:47:38;2.20;99.90
10437;DHT22;5265;50.006;9.202;2023-01-25T00:50:07;2.10;99.90
10437;DHT22;5265;50.006;9.202;2023-01-25T00:52:38;2.20;99.90
10437;DHT22;5265;50.006;9.202;2023-01-25T00:55:06;2.20;99.90
10437;DHT22;5265;50.006;9.202;2023-01-25T00:57:33;2.10;99.90
10437;DHT22;5265;50.006;9.202;2023-01-25T01:00:00;2.20;99.90
10437;DHT22;5265;50.006;9.202;2023-01-25T01:02:29;2.10;99.90
10437;DHT22;5265;50.006;9.202;2023-01-25T01:04:56;2.20;99.90
10437;DHT22;5265;50.006;9.202;2023-01-25T01:07:25;2.10;99.90
10437;DHT22;5265;50.006;9.202;2023-01-25T01:09:53;2.10;99.90
10437;DHT22;5265;50.006;9.202;2023-01-25T01:12:23;1.90;99.90
10437;DHT22;5265;50.006;9.202;2023-01-25T01:14:50;2.10;99.90
10437;DHT22;5265;50.006;9.202;2023-01-25T01:17:17;2.10;99.90
10437;DHT22;5265;50.006;9.202;2023-01-25T01:19:46;1.90;99.90
10437;DHT22;5265;50.006;9.202;2023-01-25T01:22:13;2.00;99.90
10437;DHT22;5265;50.006;9.202;2023-01-25T01:24:42;2.20;99.90
10437;DHT22;5265;50.006;9.202;2023-01-25T01:27:09;2.00;99.90
10437;DHT22;5265;50.006;9.202;2023-01-25T01:29:36;2.00;99.90
10437;DHT22;5265;50.006;9.202;2023-01-25T01:32:03;1.90;99.90
10437;DHT22;5265;50.006;9.202;2023-01-25T01:34:31;2.10;99.90
10437;DHT22;5265;50.006;9.202;2023-01-25T01:36:58;2.00;99.90
10437;DHT22;5265;50.006;9.202;2023-01-25T01:39:25;2.00;99.90
10437;DHT22;5265;50.006;9.202;2023-01-25T01:41:54;2.00;99.90
10437;DHT22;5265;50.006;9.202;2023-01-25T01:47:03;2.00;99.90
10437;DHT22;5265;50.006;9.202;2023-01-25T01:49:31;1.90;99.90
10437;DHT22;5265;50.006;9.202;2023-01-25T01:52:07;2.00;99.90
10437;DHT22;5265;50.006;9.202;2023-01-25T01:54:39;2.00;99.90
10437;DHT22;5265;50.006;9.202;2023-01-25T01:57:09;2.10;99.90
10437;DHT22;5265;50.006;9.202;2023-01-25T01:59:40;2.00;99.90
10437;DHT22;5265;50.006;9.202;2023-01-25T02:02:08;2.00;99.90
10437;DHT22;5265;50.006;9.202;2023-01-25T02:04:36;2.00;99.90
10437;DHT22;5265;50.006;9.202;2023-01-25T02:07:10;2.00;99.90
10437;DHT22;5265;50.006;9.202;2023-01-25T02:09:41;1.90;99.90
10437;DHT22;5265;50.006;9.202;2023-01-25T02:12:11;2.00;99.90
10437;DHT22;5265;50.006;9.202;2023-01-25T02:14:38;2.10;99.90
10437;DHT22;5265;50.006;9.202;2023-01-25T02:17:10;1.90;99.90
10437;DHT22;5265;50.006;9.202;2023-01-25T02:19:40;1.90;99.90
10437;DHT22;5265;50.006;9.202;2023-01-25T02:22:09;1.80;99.90
10437;DHT22;5265;50.006;9.202;2023-01-25T02:24:38;1.80;99.90
10437;DHT22;5265;50.006;9.202;2023-01-25T02:27:10;1.70;99.90
10437;DHT22;5265;50.006;9.202;2023-01-25T02:29:37;1.80;99.90
10437;DHT22;5265;50.006;9.202;2023-01-25T02:32:05;1.70;99.90
10437;DHT22;5265;50.006;9.202;2023-01-25T02:34:32;1.80;99.90
10437;DHT22;5265;50.006;9.202;2023-01-25T02:37:00;1.80;99.90
10437;DHT22;5265;50.006;9.202;2023-01-25T02:39:28;1.70;99.90
10437;DHT22;5265;50.006;9.202;2023-01-25T02:41:55;1.70;99.90
10437;DHT22;5265;50.006;9.202;2023-01-25T02:44:26;1.80;99.90
10437;DHT22;5265;50.006;9.202;2023-01-25T02:46:55;1.70;99.90
10437;DHT22;5265;50.006;9.202;2023-01-25T02:49:22;1.60;99.90
10437;DHT22;5265;50.006;9.202;2023-01-25T02:51:50;1.70;99.90
10437;DHT22;5265;50.006;9.202;2023-01-25T02:54:21;1.70;99.90
10437;DHT22;5265;50.006;9.202;2023-01-25T02:56:49;1.60;99.90
10437;DHT22;5265;50.006;9.202;2023-01-25T02:59:16;2.10;99.90
10437;DHT22;5265;50.006;9.202;2023-01-25T03:01:50;1.70;99.90
10437;DHT22;5265;50.006;9.202;2023-01-25T03:04:17;1.70;99.90
10437;DHT22;5265;50.006;9.202;2023-01-25T03:06:46;1.70;99.90
10437;DHT22;5265;50.006;9.202;2023-01-25T03:09:14;1.70;99.90
10437;DHT22;5265;50.006;9.202;2023-01-25T03:11:44;1.70;99.90
10437;DHT22;5265;50.006;9.202;2023-01-25T03:14:12;1.70;99.90
10437;DHT22;5265;50.006;9.202;2023-01-25T03:16:39;1.80;99.90
10437;DHT22;5265;50.006;9.202;2023-01-25T03:19:08;1.70;99.90
10437;DHT22;5265;50.006;9.202;2023-01-25T03:21:38;1.70;99.90
10437;DHT22;5265;50.006;9.202;2023-01-25T03:24:07;1.70;99.90
10437;DHT22;5265;50.006;9.202;2023-01-25T03:26:41;1.70;99.90
10437;DHT22;5265;50.006;9.202;2023-01-25T03:29:30;1.70;99.90
10437;DHT22;5265;50.006;9.202;2023-01-25T03:32:06;1.60;99.90
10437;DHT22;5265;50.006;9.202;2023-01-25T03:34:35;1.60;99.90
10437;DHT22;5265;50.006;9.202;2023-01-25T03:37:02;1.50;99.90
10437;DHT22;5265;50.006;9.202;2023-01-25T03:39:32;1.80;99.90
10437;DHT22;5265;50.006;9.202;2023-01-25T03:41:59;1.60;99.90
10437;DHT22;5265;50.006;9.202;2023-01-25T03:44:27;1.60;99.90
10437;DHT22;5265;50.006;9.202;2023-01-25T03:46:53;1.60;99.90
10437;DHT22;5265;50.006;9.202;2023-01-25T03:49:21;1.60;99.90
10437;DHT22;5265;50.006;9.202;2023-01-25T03:51:49;1.60;99.90
10437;DHT22;5265;50.006;9.202;2023-01-25T03:54:18;1.60;99.90
10437;DHT22;5265;50.006;9.202;2023-01-25T03:56:45;1.60;99.90
10437;DHT22;5265;50.006;9.202;2023-01-25T03:59:22;1.50;99.90
10437;DHT22;5265;50.006;9.202;2023-01-25T04:01:49;1.60;99.90
10437;DHT22;5265;50.006;9.202;2023-01-25T04:04:17;1.60;99.90
10437;DHT22;5265;50.006;9.202;2023-01-25T04:06:45;1.50;99.90
10437;DHT22;5265;50.006;9.202;2023-01-25T04:09:14;1.50;99.90
10437;DHT22;5265;50.006;9.202;2023-01-25T04:11:47;1.60;99.90
10437;DHT22;5265;50.006;9.202;2023-01-25T04:14:15;1.50;99.90
10437;DHT22;5265;50.006;9.202;2023-01-25T04:16:52;1.40;99.90
10437;DHT22;5265;50.006;9.202;2023-01-25T04:19:39;1.50;99.90
10437;DHT22;5265;50.006;9.202;2023-01-25T04:22:10;1.50;99.90
10437;DHT22;5265;50.006;9.202;2023-01-25T04:24:39;1.50;99.90
10437;DHT22;5265;50.006;9.202;2023-01-25T04:27:06;1.50;99.90
10437;DHT22;5265;50.006;9.202;2023-01-25T04:29:41;1.50;99.90
10437;DHT22;5265;50.006;9.202;2023-01-25T04:32:14;1.50;99.90
10437;DHT22;5265;50.006;9.202;2023-01-25T04:34:41;1.60;99.90
10437;DHT22;5265;50.006;9.202;2023-01-25T04:37:13;1.50;99.90
10437;DHT22;5265;50.006;9.202;2023-01-25T04:39:51;1.60;99.90
10437;DHT22;5265;50.006;9.202;2023-01-25T04:42:19;1.50;99.90
10437;DHT22;5265;50.006;9.202;2023-01-25T04:44:50;1.50;99.90
10437;DHT22;5265;50.006;9.202;2023-01-25T04:47:17;1.50;99.90
10437;DHT22;5265;50.006;9.202;2023-01-25T04:49:44;1.50;99.90
10437;DHT22;5265;50.006;9.202;2023-01-25T04:52:15;1.50;99.90
10437;DHT22;5265;50.006;9.202;2023-01-25T04:54:42;1.40;99.90
10437;DHT22;5265;50.006;9.202;2023-01-25T04:57:12;1.40;99.90
10437;DHT22;5265;50.006;9.202;2023-01-25T04:59:45;1.40;99.90
10437;DHT22;5265;50.006;9.202;2023-01-25T05:02:12;1.40;99.90
10437;DHT22;5265;50.006;9.202;2023-01-25T05:04:39;1.40;99.90
10437;DHT22;5265;50.006;9.202;2023-01-25T05:07:07;1.30;99.90
10437;DHT22;5265;50.006;9.202;2023-01-25T05:09:34;1.30;99.90
10437;DHT22;5265;50.006;9.202;2023-01-25T05:12:01;1.30;99.90
10437;DHT22;5265;50.006;9.202;2023-01-25T05:14:53;1.30;99.90
10437;DHT22;5265;50.006;9.202;2023-01-25T05:17:21;1.40;99.90
10437;DHT22;5265;50.006;9.202;2023-01-25T05:19:48;1.30;99.90
10437;DHT22;5265;50.006;9.202;2023-01-25T05:22:19;1.20;99.90
10437;DHT22;5265;50.006;9.202;2023-01-25T05:24:50;1.10;99.90
10437;DHT22;5265;50.006;9.202;2023-01-25T05:27:18;1.10;99.90
10437;DHT22;5265;50.006;9.202;2023-01-25T05:29:55;1.20;99.90
10437;DHT22;5265;50.006;9.202;2023-01-25T05:32:51;1.20;99.90
10437;DHT22;5265;50.006;9.202;2023-01-25T05:35:19;1.30;99.90
10437;DHT22;5265;50.006;9.202;2023-01-25T05:37:48;1.30;99.90
10437;DHT22;5265;50.006;9.202;2023-01-25T05:40:21;1.20;99.90
10437;DHT22;5265;50.006;9.202;2023-01-25T05:42:54;1.10;99.90
10437;DHT22;5265;50.006;9.202;2023-01-25T05:45:24;1.20;99.90
10437;DHT22;5265;50.006;9.202;2023-01-25T05:47:54;1.30;99.90
10437;DHT22;5265;50.006;9.202;2023-01-25T05:50:24;1.20;99.90
10437;DHT22;5265;50.006;9.202;2023-01-25T05:53:02;1.10;99.90
10437;DHT22;5265;50.006;9.202;2023-01-25T05:55:29;1.00;99.90
10437;DHT22;5265;50.006;9.202;2023-01-25T05:58:01;0.90;99.90
10437;DHT22;5265;50.006;9.202;2023-01-25T06:00:30;1.10;99.90
10437;DHT22;5265;50.006;9.202;2023-01-25T06:02:59;1.10;99.90
10437;DHT22;5265;50.006;9.202;2023-01-25T06:05:30;1.10;99.90
10437;DHT22;5265;50.006;9.202;2023-01-25T06:07:57;1.10;99.90
10437;DHT22;5265;50.006;9.202;2023-01-25T06:10:31;1.00;99.90
10437;DHT22;5265;50.006;9.202;2023-01-25T06:12:59;1.00;99.90
10437;DHT22;5265;50.006;9.202;2023-01-25T06:15:26;1.10;99.90
10437;DHT22;5265;50.006;9.202;2023-01-25T06:18:01;1.10;99.90
10437;DHT22;5265;50.006;9.202;2023-01-25T06:20:47;1.00;99.90
10437;DHT22;5265;50.006;9.202;2023-01-25T06:23:14;1.10;99.90
10437;DHT22;5265;50.006;9.202;2023-01-25T06:25:41;1.10;99.90
10437;DHT22;5265;50.006;9.202;2023-01-25T06:28:08;1.00;99.90
10437;DHT22;5265;50.006;9.202;2023-01-25T06:30:35;1.10;99.90
10437;DHT22;5265;50.006;9.202;2023-01-25T06:33:04;1.20;99.90
10437;DHT22;5265;50.006;9.202;2023-01-25T06:35:31;1.10;99.90
10437;DHT22;5265;50.006;9.202;2023-01-25T06:37:59;1.10;99.90
10437;DHT22;5265;50.006;9.202;2023-01-25T06:40:27;1.10;99.90
10437;DHT22;5265;50.006;9.202;2023-01-25T06:42:54;1.10;99.90
10437;DHT22;5265;50.006;9.202;2023-01-25T06:45:21;1.10;99.90
10437;DHT22;5265;50.006;9.202;2023-01-25T06:47:48;1.10;99.90
10437;DHT22;5265;50.006;9.202;2023-01-25T06:50:18;1.10;99.90
10437;DHT22;5265;50.006;9.202;2023-01-25T06:52:50;1.10;99.90
10437;DHT22;5265;50.006;9.202;2023-01-25T06:55:17;1.20;99.90
10437;DHT22;5265;50.006;9.202;2023-01-25T06:57:44;1.20;99.90
10437;DHT22;5265;50.006;9.202;2023-01-25T07:00:11;1.20;99.90
10437;DHT22;5265;50.006;9.202;2023-01-25T07:02:39;1.10;99.90
10437;DHT22;5265;50.006;9.202;2023-01-25T07:05:06;1.30;99.90
10437;DHT22;5265;50.006;9.202;2023-01-25T07:07:35;1.10;99.90
10437;DHT22;5265;50.006;9.202;2023-01-25T07:10:02;1.30;99.90
10437;DHT22;5265;50.006;9.202;2023-01-25T07:12:29;1.20;99.90
10437;DHT22;5265;50.006;9.202;2023-01-25T07:14:57;1.10;99.90
10437;DHT22;5265;50.006;9.202;2023-01-25T07:17:24;1.10;99.90
10437;DHT22;5265;50.006;9.202;2023-01-25T07:19:51;1.20;99.90
10437;DHT22;5265;50.006;9.202;2023-01-25T07:22:18;1.10;99.90
10437;DHT22;5265;50.006;9.202;2023-01-25T07:24:47;1.10;99.90
10437;DHT22;5265;50.006;9.202;2023-01-25T07:27:16;1.10;99.90
10437;DHT22;5265;50.006;9.202;2023-01-25T07:29:44;1.10;99.90
10437;DHT22;5265;50.006;9.202;2023-01-25T07:32:11;1.30;99.90
10437;DHT22;5265;50.006;9.202;2023-01-25T07:34:38;1.20;99.90
10437;DHT22;5265;50.006;9.202;2023-01-25T07:37:06;1.10;99.90
10437;DHT22;5265;50.006;9.202;2023-01-25T07:39:34;1.20;99.90
10437;DHT22;5265;50.006;9.202;2023-01-25T07:42:03;1.20;99.90
10437;DHT22;5265;50.006;9.202;2023-01-25T07:44:31;1.20;99.90
10437;DHT22;5265;50.006;9.202;2023-01-25T07:47:09;1.20;99.90
10437;DHT22;5265;50.006;9.202;2023-01-25T07:49:36;1.30;99.90
10437;DHT22;5265;50.006;9.202;2023-01-25T07:52:03;1.30;99.90
10437;DHT22;5265;50.006;9.202;2023-01-25T07:54:30;1.20;99.90
10437;DHT22;5265;50.006;9.202;2023-01-25T07:56:57;1.30;99.90
10437;DHT22;5265;50.006;9.202;2023-01-25T07:59:25;1.20;99.90
10437;DHT22;5265;50.006;9.202;2023-01-25T08:01:53;1.20;99.90
10437;DHT22;5265;50.006;9.202;2023-01-25T08:04:20;1.20;99.90
10437;DHT22;5265;50.006;9.202;2023-01-25T08:06:47;1.40;99.90
10437;DHT22;5265;50.006;9.202;2023-01-25T08:09:15;1.20;99.90
10437;DHT22;5265;50.006;9.202;2023-01-25T08:11:44;1.20;99.90
10437;DHT22;5265;50.006;9.202;2023-01-25T08:14:11;1.20;99.90
10437;DHT22;5265;50.006;9.202;2023-01-25T08:16:40;1.10;99.90
10437;DHT22;5265;50.006;9.202;2023-01-25T08:19:08;1.10;99.90
10437;DHT22;5265;50.006;9.202;2023-01-25T08:21:35;1.30;99.90
10437;DHT22;5265;50.006;9.202;2023-01-25T08:24:04;1.10;99.90
10437;DHT22;5265;50.006;9.202;2023-01-25T08:26:31;1.10;99.90
10437;DHT22;5265;50.006;9.202;2023-01-25T08:28:59;1.00;99.90
10437;DHT22;5265;50.006;9.202;2023-01-25T08:31:27;1.10;99.90
10437;DHT22;5265;50.006;9.202;2023-01-25T08:33:56;1.10;99.90
10437;DHT22;5265;50.006;9.202;2023-01-25T08:36:23;1.10;99.90
10437;DHT22;5265;50.006;9.202;2023-01-25T08:38:53;1.20;99.90
10437;DHT22;5265;50.006;9.202;2023-01-25T08:41:21;1.10;99.90
10437;DHT22;5265;50.006;9.202;2023-01-25T08:43:50;1.30;99.90
10437;DHT22;5265;50.006;9.202;2023-01-25T08:46:17;1.20;99.90
10437;DHT22;5265;50.006;9.202;2023-01-25T08:48:44;1.20;99.90
10437;DHT22;5265;50.006;9.202;2023-01-25T08:51:15;1.10;99.90
10437;DHT22;5265;50.006;9.202;2023-01-25T08:53:42;1.10;99.90
10437;DHT22;5265;50.006;9.202;2023-01-25T08:56:10;1.10;99.90
10437;DHT22;5265;50.006;9.202;2023-01-25T08:58:39;1.30;99.90
10437;DHT22;5265;50.006;9.202;2023-01-25T09:01:07;1.20;99.90
10437;DHT22;5265;50.006;9.202;2023-01-25T09:03:34;1.10;99.90
10437;DHT22;5265;50.006;9.202;2023-01-25T09:06:02;1.20;99.90
10437;DHT22;5265;50.006;9.202;2023-01-25T09:08:31;1.10;99.90
10437;DHT22;5265;50.006;9.202;2023-01-25T09:10:59;1.10;99.90
10437;DHT22;5265;50.006;9.202;2023-01-25T09:13:27;1.10;99.90
10437;DHT22;5265;50.006;9.202;2023-01-25T09:15:57;1.10;99.90
10437;DHT22;5265;50.006;9.202;2023-01-25T09:18:25;1.20;99.90
10437;DHT22;5265;50.006;9.202;2023-01-25T09:20:53;1.20;99.90
10437;DHT22;5265;50.006;9.202;2023-01-25T09:23:20;1.30;99.90
10437;DHT22;5265;50.006;9.202;2023-01-25T09:25:54;1.10;99.90
10437;DHT22;5265;50.006;9.202;2023-01-25T09:28:22;1.20;99.90
10437;DHT22;5265;50.006;9.202;2023-01-25T09:30:52;1.30;99.90
10437;DHT22;5265;50.006;9.202;2023-01-25T09:33:27;1.20;99.90
10437;DHT22;5265;50.006;9.202;2023-01-25T09:35:54;1.30;99.90
10437;DHT22;5265;50.006;9.202;2023-01-25T09:38:21;1.40;99.90
10437;DHT22;5265;50.006;9.202;2023-01-25T09:40:53;1.40;99.90
10437;DHT22;5265;50.006;9.202;2023-01-25T09:43:26;1.30;99.90
10437;DHT22;5265;50.006;9.202;2023-01-25T09:45:56;1.40;99.90
10437;DHT22;5265;50.006;9.202;2023-01-25T09:48:24;1.20;99.90
10437;DHT22;5265;50.006;9.202;2023-01-25T09:53:40;1.20;99.90
10437;DHT22;5265;50.006;9.202;2023-01-25T09:56:16;1.40;99.90
10437;DHT22;5265;50.006;9.202;2023-01-25T09:58:45;1.50;99.90
10437;DHT22;5265;50.006;9.202;2023-01-25T10:01:17;1.60;99.90
10437;DHT22;5265;50.006;9.202;2023-01-25T10:03:47;1.40;99.90
10437;DHT22;5265;50.006;9.202;2023-01-25T10:06:16;1.30;99.90
10437;DHT22;5265;50.006;9.202;2023-01-25T10:08:47;1.50;99.90
10437;DHT22;5265;50.006;9.202;2023-01-25T10:11:20;1.40;99.90
10437;DHT22;5265;50.006;9.202;2023-01-25T10:13:47;1.30;99.90
10437;DHT22;5265;50.006;9.202;2023-01-25T10:16:16;1.30;99.90
10437;DHT22;5265;50.006;9.202;2023-01-25T10:18:50;1.30;99.90
10437;DHT22;5265;50.006;9.202;2023-01-25T10:21:20;1.40;99.90
10437;DHT22;5265;50.006;9.202;2023-01-25T10:26:32;1.40;99.90
10437;DHT22;5265;50.006;9.202;2023-01-25T10:29:01;1.50;99.90
10437;DHT22;5265;50.006;9.202;2023-01-25T10:31:31;1.40;99.90
10437;DHT22;5265;50.006;9.202;2023-01-25T10:34:01;1.40;99.90
10437;DHT22;5265;50.006;9.202;2023-01-25T10:36:29;1.60;99.90
10437;DHT22;5265;50.006;9.202;2023-01-25T10:38:56;1.50;99.90
10437;DHT22;5265;50.006;9.202;2023-01-25T10:41:27;1.40;99.90
10437;DHT22;5265;50.006;9.202;2023-01-25T10:43:58;1.50;99.90
10437;DHT22;5265;50.006;9.202;2023-01-25T10:46:40;1.70;99.90
10437;DHT22;5265;50.006;9.202;2023-01-25T10:49:17;1.50;99.90
10437;DHT22;5265;50.006;9.202;2023-01-25T10:51:46;1.40;99.90
10437;DHT22;5265;50.006;9.202;2023-01-25T10:54:13;1.40;99.90
10437;DHT22;5265;50.006;9.202;2023-01-25T10:56:41;1.50;99.90
10437;DHT22;5265;50.006;9.202;2023-01-25T10:59:16;1.40;99.90
10437;DHT22;5265;50.006;9.202;2023-01-25T11:01:43;1.40;99.90
10437;DHT22;5265;50.006;9.202;2023-01-25T11:07:10;1.50;99.90
10437;DHT22;5265;50.006;9.202;2023-01-25T11:09:51;1.50;99.90
10437;DHT22;5265;50.006;9.202;2023-01-25T11:12:18;1.60;99.90
10437;DHT22;5265;50.006;9.202;2023-01-25T11:14:47;1.60;99.90
10437;DHT22;5265;50.006;9.202;2023-01-25T11:17:21;1.60;99.90
10437;DHT22;5265;50.006;9.202;2023-01-25T11:19:49;1.60;99.90
10437;DHT22;5265;50.006;9.202;2023-01-25T11:22:31;1.60;99.90
10437;DHT22;5265;50.006;9.202;2023-01-25T11:24:58;1.70;99.90
10437;DHT22;5265;50.006;9.202;2023-01-25T11:27:44;1.70;99.90
10437;DHT22;5265;50.006;9.202;2023-01-25T11:30:15;1.70;99.90
10437;DHT22;5265;50.006;9.202;2023-01-25T11:32:43;1.60;99.90
10437;DHT22;5265;50.006;9.202;2023-01-25T11:35:11;1.80;99.90
10437;DHT22;5265;50.006;9.202;2023-01-25T11:37:41;1.70;99.90
10437;DHT22;5265;50.006;9.202;2023-01-25T11:40:12;1.60;99.90
10437;DHT22;5265;50.006;9.202;2023-01-25T11:42:43;1.60;99.90
10437;DHT22;5265;50.006;9.202;2023-01-25T11:45:20;1.70;99.90
10437;DHT22;5265;50.006;9.202;2023-01-25T11:47:59;1.60;99.90
10437;DHT22;5265;50.006;9.202;2023-01-25T11:50:32;1.60;99.90
10437;DHT22;5265;50.006;9.202;2023-01-25T11:53:09;1.80;99.90
10437;DHT22;5265;50.006;9.202;2023-01-25T11:55:48;1.90;99.90
10437;DHT22;5265;50.006;9.202;2023-01-25T11:58:19;1.80;99.90
10437;DHT22;5265;50.006;9.202;2023-01-25T12:00:55;1.80;99.90
10437;DHT22;5265;50.006;9.202;2023-01-25T12:03:32;1.70;99.90
10437;DHT22;5265;50.006;9.202;2023-01-25T12:06:03;1.70;99.90
10437;DHT22;5265;50.006;9.202;2023-01-25T12:08:40;1.90;99.90
10437;DHT22;5265;50.006;9.202;2023-01-25T12:11:13;1.80;99.90
10437;DHT22;5265;50.006;9.202;2023-01-25T12:13:44;1.70;99.90
10437;DHT22;5265;50.006;9.202;2023-01-25T12:16:20;1.70;99.90
10437;DHT22;5265;50.006;9.202;2023-01-25T12:18:54;1.80;99.90
10437;DHT22;5265;50.006;9.202;2023-01-25T12:21:28;1.90;99.90
10437;DHT22;5265;50.006;9.202;2023-01-25T12:24:09;1.90;99.90
10437;DHT22;5265;50.006;9.202;2023-01-25T12:26:39;1.80;99.90
10437;DHT22;5265;50.006;9.202;2023-01-25T12:29:13;1.70;99.90
10437;DHT22;5265;50.006;9.202;2023-01-25T12:31:44;1.80;99.90
10437;DHT22;5265;50.006;9.202;2023-01-25T12:34:15;1.90;99.90
10437;DHT22;5265;50.006;9.202;2023-01-25T12:36:45;1.90;99.90
10437;DHT22;5265;50.006;9.202;2023-01-25T12:39:15;1.90;99.90
10437;DHT22;5265;50.006;9.202;2023-01-25T12:41:45;1.80;99.90
10437;DHT22;5265;50.006;9.202;2023-01-25T12:44:16;1.90;99.90
10437;DHT22;5265;50.006;9.202;2023-01-25T12:46:50;1.80;99.90
10437;DHT22;5265;50.006;9.202;2023-01-25T12:49:20;1.80;99.90
10437;DHT22;5265;50.006;9.202;2023-01-25T12:51:49;1.90;99.90
10437;DHT22;5265;50.006;9.202;2023-01-25T12:54:19;1.80;99.90
10437;DHT22;5265;50.006;9.202;2023-01-25T12:56:52;1.80;99.90
10437;DHT22;5265;50.006;9.202;2023-01-25T12:59:22;2.00;99.90
10437;DHT22;5265;50.006;9.202;2023-01-25T13:01:56;1.80;99.90
10437;DHT22;5265;50.006;9.202;2023-01-25T13:04:26;1.80;99.90
10437;DHT22;5265;50.006;9.202;2023-01-25T13:07:00;1.70;99.90
10437;DHT22;5265;50.006;9.202;2023-01-25T13:09:32;1.70;99.90
10437;DHT22;5265;50.006;9.202;2023-01-25T13:12:01;1.80;99.90
10437;DHT22;5265;50.006;9.202;2023-01-25T13:14:29;1.90;99.90
10437;DHT22;5265;50.006;9.202;2023-01-25T13:19:42;1.80;99.90
10437;DHT22;5265;50.006;9.202;2023-01-25T13:22:10;2.00;99.90
10437;DHT22;5265;50.006;9.202;2023-01-25T13:27:24;1.60;99.90
10437;DHT22;5265;50.006;9.202;2023-01-25T13:29:58;1.50;99.90
10437;DHT22;5265;50.006;9.202;2023-01-25T13:35:25;1.40;99.90
10437;DHT22;5265;50.006;9.202;2023-01-25T13:37:56;1.30;99.90
10437;DHT22;5265;50.006;9.202;2023-01-25T13:40:26;1.40;99.90
10437;DHT22;5265;50.006;9.202;2023-01-25T13:42:58;1.40;99.90
10437;DHT22;5265;50.006;9.202;2023-01-25T13:45:25;1.40;99.90
10437;DHT22;5265;50.006;9.202;2023-01-25T13:47:58;1.50;99.90
10437;DHT22;5265;50.006;9.202;2023-01-25T13:50:28;1.40;99.90
10437;DHT22;5265;50.006;9.202;2023-01-25T13:52:59;1.40;99.90
10437;DHT22;5265;50.006;9.202;2023-01-25T13:55:26;1.40;99.90
10437;DHT22;5265;50.006;9.202;2023-01-25T13:58:07;1.50;99.90
10437;DHT22;5265;50.006;9.202;2023-01-25T14:00:34;1.50;99.90
10437;DHT22;5265;50.006;9.202;2023-01-25T14:03:03;1.40;99.90
10437;DHT22;5265;50.006;9.202;2023-01-25T14:05:32;1.50;99.90
10437;DHT22;5265;50.006;9.202;2023-01-25T14:07:59;1.50;99.90
10437;DHT22;5265;50.006;9.202;2023-01-25T14:10:26;1.70;99.90
10437;DHT22;5265;50.006;9.202;2023-01-25T14:12:56;1.70;99.90
10437;DHT22;5265;50.006;9.202;2023-01-25T14:15:24;1.60;99.90
10437;DHT22;5265;50.006;9.202;2023-01-25T14:18:08;1.60;99.90
10437;DHT22;5265;50.006;9.202;2023-01-25T14:20:38;1.70;99.90
10437;DHT22;5265;50.006;9.202;2023-01-25T14:23:17;1.60;99.90
10437;DHT22;5265;50.006;9.202;2023-01-25T14:25:45;1.60;99.90
10437;DHT22;5265;50.006;9.202;2023-01-25T14:28:12;1.50;99.90
10437;DHT22;5265;50.006;9.202;2023-01-25T14:30:40;1.60;99.90
10437;DHT22;5265;50.006;9.202;2023-01-25T14:33:15;1.50;99.90
10437;DHT22;5265;50.006;9.202;2023-01-25T14:35:44;1.60;99.90
10437;DHT22;5265;50.006;9.202;2023-01-25T14:38:22;1.50;99.90
10437;DHT22;5265;50.006;9.202;2023-01-25T14:40:50;1.60;99.90
10437;DHT22;5265;50.006;9.202;2023-01-25T14:43:19;1.60;99.90
10437;DHT22;5265;50.006;9.202;2023-01-25T14:45:46;1.70;99.90
10437;DHT22;5265;50.006;9.202;2023-01-25T14:48:32;1.60;99.90
10437;DHT22;5265;50.006;9.202;2023-01-25T14:51:02;1.50;99.90
10437;DHT22;5265;50.006;9.202;2023-01-25T14:53:30;1.60;99.90
10437;DHT22;5265;50.006;9.202;2023-01-25T14:55:57;1.70;99.90
10437;DHT22;5265;50.006;9.202;2023-01-25T14:58:24;1.70;99.90
10437;DHT22;5265;50.006;9.202;2023-01-25T15:00:56;1.50;99.90
10437;DHT22;5265;50.006;9.202;2023-01-25T15:03:24;1.60;99.90
10437;DHT22;5265;50.006;9.202;2023-01-25T15:05:52;1.70;99.90
10437;DHT22;5265;50.006;9.202;2023-01-25T15:08:26;1.60;99.90
10437;DHT22;5265;50.006;9.202;2023-01-25T15:10:54;1.50;99.90
10437;DHT22;5265;50.006;9.202;2023-01-25T15:13:22;1.50;99.90
10437;DHT22;5265;50.006;9.202;2023-01-25T15:15:51;1.60;99.90
10437;DHT22;5265;50.006;9.202;2023-01-25T15:21:04;1.50;99.90
10437;DHT22;5265;50.006;9.202;2023-01-25T15:23:32;1.50;99.90
10437;DHT22;5265;50.006;9.202;2023-01-25T15:26:00;1.40;99.90
10437;DHT22;5265;50.006;9.202;2023-01-25T15:28:29;1.50;99.90
10437;DHT22;5265;50.006;9.202;2023-01-25T15:30:59;1.60;99.90
10437;DHT22;5265;50.006;9.202;2023-01-25T15:33:26;1.70;99.90
10437;DHT22;5265;50.006;9.202;2023-01-25T15:35:54;1.60;99.90
10437;DHT22;5265;50.006;9.202;2023-01-25T15:38:21;1.60;99.90
10437;DHT22;5265;50.006;9.202;2023-01-25T15:40:51;1.60;99.90
10437;DHT22;5265;50.006;9.202;2023-01-25T15:43:18;1.50;99.90
10437;DHT22;5265;50.006;9.202;2023-01-25T15:45:46;1.50;99.90
10437;DHT22;5265;50.006;9.202;2023-01-25T15:48:15;1.40;99.90
10437;DHT22;5265;50.006;9.202;2023-01-25T15:50:42;1.40;99.90
10437;DHT22;5265;50.006;9.202;2023-01-25T15:53:11;1.40;99.90
10437;DHT22;5265;50.006;9.202;2023-01-25T15:55:39;1.40;99.90
10437;DHT22;5265;50.006;9.202;2023-01-25T15:58:09;1.70;99.90
10437;DHT22;5265;50.006;9.202;2023-01-25T16:00:38;1.40;99.90
10437;DHT22;5265;50.006;9.202;2023-01-25T16:03:06;1.40;99.90
10437;DHT22;5265;50.006;9.202;2023-01-25T16:05:33;1.40;99.90
10437;DHT22;5265;50.006;9.202;2023-01-25T16:08:00;1.40;99.90
10437;DHT22;5265;50.006;9.202;2023-01-25T16:10:28;1.40;99.90
10437;DHT22;5265;50.006;9.202;2023-01-25T16:12:55;1.40;99.90
10437;DHT22;5265;50.006;9.202;2023-01-25T16:15:23;1.40;99.90
10437;DHT22;5265;50.006;9.202;2023-01-25T16:17:51;1.50;99.90
10437;DHT22;5265;50.006;9.202;2023-01-25T16:20:18;1.40;99.90
10437;DHT22;5265;50.006;9.202;2023-01-25T16:22:46;1.40;99.90
10437;DHT22;5265;50.006;9.202;2023-01-25T16:25:13;1.30;99.90
10437;DHT22;5265;50.006;9.202;2023-01-25T16:27:40;1.30;99.90
10437;DHT22;5265;50.006;9.202;2023-01-25T16:30:12;1.40;99.90
10437;DHT22;5265;50.006;9.202;2023-01-25T16:32:44;1.30;99.90
10437;DHT22;5265;50.006;9.202;2023-01-25T16:35:13;1.40;99.90
10437;DHT22;5265;50.006;9.202;2023-01-25T16:37:40;1.50;99.90
10437;DHT22;5265;50.006;9.202;2023-01-25T16:40:12;1.60;99.90